ETEB/QOB METAR and TAF weather

Enter ICAO airport designator
Station Type Date Time Source
ETEB METAR 2018/04/27 00:56 UTC NOAA

ETEB 270056Z AUTO 00000KT 9999 CLR 04/00 A3006 RMK AO2 SLP200 T00410002 $


Station Type Date Time Source
ETEB Decoded METAR 2018/04/27 00:56 UTC NOAA

Ansbach / Katterbach, Germany (ETEB) 49-19N 010-38E 476M
Apr 26, 2018 - 08:56 PM EDT / 2018.04.27 0056 UTC
Wind: Calm:0
Visibility: greater than 7 mile(s):0
Sky conditions: clear
Temperature: 39.4 F (4.1 C)
Dew Point: 32.4 F (0.2 C)
Relative Humidity: 75%
Pressure (altimeter): 30.06 in. Hg (1017 hPa)
ob: ETEB 270056Z AUTO 00000KT 9999 CLR 04/00 A3006 RMK AO2 SLP200 T00410002
cycle: 1

Station Type Date Time Source
ETEB TAF 2018/04/26 21:08 UTC NOAA

TAF ETEB 262102Z 2621/2803 VRB06KT 9999 FEW035 QNH2997INS
BECMG 2709/2710 15012KT 9999 FEW030 QNH2979INS
BECMG 2719/2720 VRB06KT 9999 FEW040 QNH2976INS TX19/2714Z TN03/2704Z


Example: see airport list